createdAt,value
2022-09-21T00:04:46.776Z,15.5
2022-09-21T00:10:23.194Z,15.5
2022-09-21T00:15:59.416Z,15.5
2022-09-21T00:21:35.820Z,15.5
2022-09-21T00:27:11.285Z,15.4
2022-09-21T00:32:45.931Z,15.4
2022-09-21T00:38:22.179Z,15.4
2022-09-21T00:43:57.398Z,15.3
2022-09-21T00:49:32.423Z,15.3
2022-09-21T00:55:07.252Z,15.2
2022-09-21T01:00:42.821Z,15.2
2022-09-21T01:06:18.606Z,15.2
2022-09-21T01:11:53.345Z,15.2
2022-09-21T01:17:28.171Z,15.1
2022-09-21T01:23:03.335Z,15.1
2022-09-21T01:28:38.220Z,15
2022-09-21T01:34:14.047Z,15
2022-09-21T01:39:49.070Z,15
2022-09-21T01:45:24.057Z,14.9
2022-09-21T01:50:59.716Z,14.9
2022-09-21T01:56:34.843Z,14.9
2022-09-21T02:02:10.126Z,14.9
2022-09-21T02:07:47.376Z,14.8
2022-09-21T02:13:22.435Z,14.8
2022-09-21T02:19:05.039Z,14.8
2022-09-21T02:24:39.773Z,14.7
2022-09-21T02:30:14.799Z,14.7
2022-09-21T02:35:49.970Z,14.7
2022-09-21T02:41:25.884Z,14.6
2022-09-21T02:47:00.737Z,14.6
2022-09-21T02:52:35.475Z,14.6
2022-09-21T02:58:11.377Z,14.6
2022-09-21T03:03:46.367Z,14.5
2022-09-21T03:09:21.073Z,14.4
2022-09-21T03:14:55.947Z,14.3
2022-09-21T03:20:30.872Z,14.3
2022-09-21T03:26:06.883Z,14.3
2022-09-21T03:31:41.931Z,14.2
2022-09-21T03:37:16.576Z,14.2
2022-09-21T03:42:51.768Z,14.2
2022-09-21T03:48:26.697Z,14.2
2022-09-21T03:54:01.699Z,14.1
2022-09-21T03:59:36.564Z,14.1
2022-09-21T04:05:11.382Z,14.1
2022-09-21T04:10:46.415Z,14.1
2022-09-21T04:16:21.666Z,14.1
2022-09-21T04:21:57.055Z,14
2022-09-21T04:27:31.886Z,14
2022-09-21T04:33:06.871Z,14
2022-09-21T04:38:42.153Z,13.9
2022-09-21T04:44:16.916Z,13.9
2022-09-21T04:49:51.663Z,13.9
2022-09-21T04:55:27.620Z,13.9
2022-09-21T05:01:02.786Z,13.8
2022-09-21T05:06:38.673Z,13.8
2022-09-21T05:12:14.524Z,13.8
2022-09-21T05:17:49.596Z,13.8
2022-09-21T05:23:29.075Z,13.7
2022-09-21T05:29:04.215Z,13.7
2022-09-21T05:34:41.532Z,13.7
2022-09-21T05:40:16.761Z,13.6
2022-09-21T05:45:54.310Z,13.6
2022-09-21T05:51:30.164Z,13.6
2022-09-21T05:57:05.926Z,13.6
2022-09-21T06:02:41.740Z,13.6
2022-09-21T06:08:18.693Z,13.6
2022-09-21T06:13:53.677Z,13.6
2022-09-21T06:19:29.915Z,13.6
2022-09-21T06:25:04.849Z,13.6
2022-09-21T06:30:39.769Z,13.6
2022-09-21T06:36:15.981Z,13.7
2022-09-21T06:41:50.680Z,13.7
2022-09-21T06:47:25.791Z,13.8
2022-09-21T06:53:01.629Z,13.8
2022-09-21T06:58:36.922Z,13.9
2022-09-21T07:04:12.416Z,14
2022-09-21T07:15:56.068Z,14.1
2022-09-21T07:21:31.264Z,14.2
2022-09-21T07:27:08.057Z,14.3
2022-09-21T07:33:04.654Z,14.4
2022-09-21T07:38:37.288Z,14.5
2022-09-21T07:44:12.506Z,14.6
2022-09-21T07:49:47.483Z,14.7
2022-09-21T07:55:22.641Z,14.8
2022-09-21T08:00:57.679Z,14.9
2022-09-21T08:06:33.943Z,15.4
2022-09-21T08:12:09.012Z,16.1
2022-09-21T08:17:44.235Z,16.5
2022-09-21T08:23:19.374Z,16.7
2022-09-21T08:28:55.587Z,16.9
2022-09-21T08:34:52.559Z,17.2
2022-09-21T08:40:25.343Z,17.5
2022-09-21T08:46:02.078Z,17.6
2022-09-21T08:51:38.405Z,17.7
2022-09-21T08:57:15.842Z,17.9
2022-09-21T09:02:51.911Z,18
2022-09-21T09:08:27.955Z,18.2
2022-09-21T09:14:03.017Z,18.3
2022-09-21T09:19:37.973Z,18.4
2022-09-21T09:25:12.889Z,18.7
2022-09-21T09:30:47.745Z,18.8
2022-09-21T09:36:34.956Z,18.9
2022-09-21T09:42:35.465Z,19.2
2022-09-21T09:48:10.451Z,19.4
2022-09-21T09:53:45.663Z,19.2
2022-09-21T09:59:22.135Z,19.3
2022-09-21T10:04:57.647Z,19.6
2022-09-21T10:10:32.690Z,19.7
2022-09-21T10:16:08.152Z,19.9
2022-09-21T10:21:48.736Z,19.8
2022-09-21T10:27:27.212Z,19.7
2022-09-21T10:33:02.666Z,20.1
2022-09-21T10:38:37.822Z,19.4
2022-09-21T10:44:12.590Z,19.7
2022-09-21T10:49:47.453Z,19.1
2022-09-21T10:55:22.331Z,20.2
2022-09-21T11:00:57.524Z,20.8
2022-09-21T11:06:33.218Z,21
2022-09-21T11:12:08.068Z,21
2022-09-21T11:17:43.228Z,21.1
2022-09-21T11:23:19.722Z,21.2
2022-09-21T11:28:54.817Z,21.6
2022-09-21T11:34:30.091Z,21.7
2022-09-21T11:40:06.150Z,21.5
2022-09-21T11:45:42.194Z,21.9
2022-09-21T11:51:26.101Z,22.1
2022-09-21T11:57:03.027Z,22.2
2022-09-21T12:02:38.559Z,22.3
2022-09-21T12:08:17.172Z,22.4
2022-09-21T12:13:52.100Z,22.6
2022-09-21T12:19:27.410Z,22.8
2022-09-21T12:25:05.170Z,23
2022-09-21T12:30:40.910Z,23.3
2022-09-21T12:36:17.126Z,23.9
2022-09-21T12:41:52.983Z,23.9
2022-09-21T12:47:28.018Z,24.3
2022-09-21T12:53:02.896Z,24.4
2022-09-21T13:13:28.373Z,25.5
2022-09-21T13:19:02.948Z,25.9
2022-09-21T13:24:40.651Z,26.1
2022-09-21T13:30:19.325Z,27
2022-09-21T13:35:54.790Z,27.7
2022-09-21T13:42:02.189Z,29
2022-09-21T13:47:40.399Z,30.5
2022-09-21T13:53:16.578Z,33.1
2022-09-21T13:58:51.629Z,37.8
2022-09-21T14:04:26.890Z,43
2022-09-21T14:10:12.126Z,44.2
2022-09-21T14:15:47.160Z,44.6
2022-09-21T14:21:22.808Z,45.5
2022-09-21T14:27:00.461Z,46.3
2022-09-21T14:32:39.508Z,47.1
2022-09-21T14:38:14.717Z,47.5
2022-09-21T14:43:51.645Z,46.4
2022-09-21T14:49:26.764Z,46.2
2022-09-21T14:55:02.764Z,47.6
2022-09-21T15:00:38.128Z,47
2022-09-21T15:06:20.754Z,39.6
2022-09-21T15:11:56.288Z,35.8
2022-09-21T15:17:31.004Z,34
2022-09-21T15:23:41.517Z,32
2022-09-21T15:29:17.801Z,30.3
2022-09-21T15:34:54.159Z,32.6
2022-09-21T15:40:29.089Z,31.3
2022-09-21T15:46:06.668Z,28.7
2022-09-21T15:51:41.847Z,27.7
2022-09-21T15:57:16.507Z,27
2022-09-21T16:02:51.280Z,26.4
2022-09-21T16:08:26.334Z,25.9
2022-09-21T16:14:06.960Z,25.5
2022-09-21T16:19:42.200Z,25.1
2022-09-21T16:25:28.118Z,25
2022-09-21T16:31:10.262Z,25.3
2022-09-21T16:37:13.492Z,25.3
2022-09-21T16:42:58.176Z,25.2
2022-09-21T16:48:34.092Z,24.8
2022-09-21T16:54:10.161Z,24.1
2022-09-21T16:59:51.372Z,23.8
2022-09-21T17:05:26.240Z,23.2
2022-09-21T17:11:02.630Z,22.8
2022-09-21T17:16:38.091Z,22.4
2022-09-21T17:22:13.863Z,22.2
2022-09-21T17:27:57.337Z,21.8
2022-09-21T17:33:45.311Z,21.4
2022-09-21T17:39:21.139Z,21
2022-09-21T17:44:55.836Z,20.6
2022-09-21T17:50:30.919Z,20.2
2022-09-21T17:56:09.515Z,19.9
2022-09-21T18:01:45.288Z,19.5
2022-09-21T18:07:45.299Z,19.3
2022-09-21T18:13:20.006Z,18.9
2022-09-21T18:19:21.722Z,18.7
2022-09-21T18:24:56.363Z,18.6
2022-09-21T18:30:31.068Z,18.4
2022-09-21T18:36:08.030Z,18.2
2022-09-21T18:41:53.199Z,18
2022-09-21T18:47:29.221Z,17.9
2022-09-21T18:53:04.013Z,17.8
2022-09-21T18:58:38.756Z,17.6
2022-09-21T19:04:13.613Z,17.4
2022-09-21T19:09:48.384Z,17.3
2022-09-21T19:15:36.707Z,17.3
2022-09-21T19:21:37.222Z,17.1
2022-09-21T19:27:12.103Z,16.9
2022-09-21T19:32:47.261Z,16.8
2022-09-21T19:38:23.306Z,16.7
2022-09-21T19:43:58.258Z,16.5
2022-09-21T19:49:33.352Z,16.4
2022-09-21T19:55:08.212Z,16.4
2022-09-21T20:00:44.281Z,16.3
2022-09-21T20:06:20.092Z,16.2
2022-09-21T20:11:54.927Z,16.1
2022-09-21T20:17:29.962Z,16.1
2022-09-21T20:23:04.837Z,15.9
2022-09-21T20:28:39.519Z,15.9
2022-09-21T20:34:14.318Z,15.7
2022-09-21T20:39:50.272Z,15.5
2022-09-21T20:45:25.347Z,15.4
2022-09-21T20:51:00.458Z,15.3
2022-09-21T20:56:36.423Z,15.2
2022-09-21T21:02:11.480Z,15
2022-09-21T21:07:47.470Z,15.6
2022-09-21T21:13:22.509Z,16.1
2022-09-21T21:19:02.673Z,16.3
2022-09-21T21:24:37.472Z,16.4
2022-09-21T21:30:12.348Z,16.4
2022-09-21T21:35:47.506Z,16.5
2022-09-21T21:41:23.922Z,16.5
2022-09-21T21:47:39.591Z,16.5
2022-09-21T21:53:22.490Z,16.5
2022-09-21T21:59:01.371Z,16.5
2022-09-21T22:04:40.209Z,16.5
2022-09-21T22:10:17.149Z,16.5
2022-09-21T22:15:52.223Z,16.4
2022-09-21T22:21:27.203Z,16.4
2022-09-21T22:27:02.123Z,16.4
2022-09-21T22:32:46.758Z,16.3
2022-09-21T22:38:21.982Z,16.2
2022-09-21T22:44:06.467Z,16.2
2022-09-21T22:49:41.510Z,16.2
2022-09-21T22:55:16.406Z,16.1
2022-09-21T23:00:55.308Z,16.1
2022-09-21T23:06:31.250Z,16.1
2022-09-21T23:12:06.297Z,16
2022-09-21T23:17:41.454Z,16
2022-09-21T23:23:16.388Z,16
2022-09-21T23:29:00.200Z,15.9
2022-09-21T23:34:35.324Z,15.9
2022-09-21T23:40:10.276Z,15.8
2022-09-21T23:45:47.445Z,15.8
2022-09-21T23:51:34.393Z,15.8
2022-09-21T23:57:09.308Z,15.7
